Terminal Aerodrome Forecast
Issued by NWS Green Bay, WI

Home | Current Version | Previous Version | Graphics & Text | Print | Product List | Glossary On
Versions: 1 2 3 4 5 6 7 8 9 10 11 12 13 14 15 16 17 18 19 20 21 22 23 24 25 26 27 28 29 30 31 32 33 34 35 36 37 38 39 40
013
FTUS43 KGRB 261243 AAA
TAFGRB
TAF AMD
KGRB 261243Z 2613/2712 24012G18KT P6SM BKN050
     FM261500 26018G28KT P6SM BKN050
     FM270000 26012G18KT P6SM SCT050 BKN100=

USA.gov is the U.S. government's official web portal to all federal, state and local government web resources and services.